• Join FlightAware (Why Join?)
  • Login
  • US Flag 
11:39PM EST


 

Airport Tracker/Info


-or-


 

Live Flight TrackerFlight Track Log ✈ CAL5 ✈ 23-May-2013 ✈ KLAX - RCTP / TPE

Flight Track Log - Related Links

Times and Time Zones

All times are in EDT time to prevent confusion due to time zone crossing. See the CAL5 flight status page for this flight to view local times or setup timezone preferences in your user account.

Time Position Orientation Groundspeed Altitude Reporting Facility
EDT Latitude Longitude Course Direction KTS MPH feet Rate Location/Type
07:26PM 33.9319 -118.4489 265° West 182 209 1,400  Level Los Angeles Center
07:27PM 33.9264 -118.5281 265° West 214 246 2,200 960 Climbing Los Angeles Center
07:28PM 33.9175 -118.6233 264° West 266 306 3,400 1,620 Climbing Los Angeles Center
07:29PM 33.9064 -118.7208 262° West 292 336 5,600 2,100 Climbing Los Angeles Center
07:30PM 33.8950 -118.8200 262° West 306 352 7,800 2,100 Climbing Los Angeles Center
07:31PM 33.8839 -118.9231 263° West 311 358 10,000 1,680 Climbing Los Angeles Center
07:32PM 33.8867 -119.0311 272° West 334 384 11,300 1,320 Climbing Los Angeles Center
07:33PM 33.9292 -119.1719 290° West 379 436 12,800 1,560 Climbing Los Angeles Center
07:34PM 33.9675 -119.2947 291° West 394 453 14,600 1,680 Climbing Los Angeles Center
07:35PM 34.0050 -119.4222 290° West 404 465 16,400 1,560 Climbing Los Angeles Center
07:36PM 34.0431 -119.5522 289° West 410 472 17,900 1,440 Climbing Los Angeles Center
07:37PM 34.1086 -119.6672 305° West 427 491 19,400 1,380 Climbing Los Angeles Center
07:38PM 34.1994 -119.7667 318° Northwest 438 504 20,800 1,380 Climbing Los Angeles Center
07:39PM 34.3078 -119.8875 317° Northwest 441 507 22,300 1,200 Climbing Los Angeles Center
07:40PM 34.3997 -119.9922 317° Northwest 450 518 23,400 900 Climbing Los Angeles Center
07:41PM 34.4753 -120.0767 317° Northwest 457 526 24,200 900 Climbing Los Angeles Center
07:42PM 34.5928 -120.2047 318° Northwest 467 537 25,300 840 Climbing Los Angeles Center
07:43PM 34.7047 -120.3286 318° Northwest 479 551 26,000 240 Climbing Los Angeles Center
07:44PM 34.7883 -120.4267 316° Northwest 479 551 25,900 60 Descending Los Angeles Center
07:45PM 34.8933 -120.5464 317° Northwest 474 545 26,200 480 Climbing Los Angeles Center
07:46PM 34.9900 -120.6564 317° Northwest 480 552 27,000 960 Climbing Los Angeles Center
07:48PM 35.1072 -120.7906 317° Northwest 485 558 28,300 1,140 Climbing Los Angeles Center
07:49PM 35.2039 -120.9011 317° Northwest 479 551 29,400 780 Climbing Los Angeles Center
07:50PM 35.3003 -121.0117 317° Northwest 477 549 30,000 240 Climbing Los Angeles Center
07:51PM 35.3981 -121.1186 318° Northwest 471 542 30,000 -120 Level Los Angeles Center
07:51PM 35.4369 -121.1603 319° Northwest 476 548 29,900 -120 Descending Oakland Center
07:52PM 35.5347 -121.2647 319° Northwest 481 554 29,900  Level Oakland Center
07:53PM 35.6322 -121.3733 318° Northwest 472 543 30,000  Climbing Oakland Center
07:54PM 35.7292 -121.4806 318° Northwest 468 539 30,000 -60 Level Oakland Center
07:55PM 35.8286 -121.5858 319° Northwest 469 540 29,900 -60 Descending Oakland Center
07:56PM 35.9453 -121.7144 318° Northwest 469 540 29,900  Level Oakland Center
07:57PM 36.0378 -121.8164 318° Northwest 468 539 30,000  Climbing Oakland Center
07:58PM 36.1342 -121.9228 318° Northwest 467 537 29,900 -60 Descending Oakland Center
07:59PM 36.2308 -122.0283 319° Northwest 464 534 29,900  Level Oakland Center
08:00PM 36.3256 -122.1350 318° Northwest 462 532 29,900  Level Oakland Center
08:01PM 36.4211 -122.2400 319° Northwest 460 529 30,000  Climbing Oakland Center
08:02PM 36.5356 -122.3667 318° Northwest 458 527 29,900 -60 Descending Oakland Center
08:03PM 36.6303 -122.4700 319° Northwest 453 521 29,900  Level Oakland Center
08:04PM 36.7239 -122.5781 317° Northwest 456 525 30,000  Climbing Oakland Center
08:05PM 36.8175 -122.6842 318° Northwest 455 524 29,900  Descending Oakland Center
08:06PM 36.9114 -122.7883 318° Northwest 454 522 30,000  Climbing Oakland Center
08:07PM 37.0050 -122.8983 317° Northwest 457 526 29,900 -60 Descending Oakland Center
08:08PM 37.0986 -123.0019 319° Northwest 452 520 29,900  Level Oakland Center
08:09PM 37.1906 -123.1089 317° Northwest 450 518 29,900  Level Oakland Center
08:10PM 37.2847 -123.2142 318° Northwest 451 519 29,900  Level Oakland Center
08:11PM 37.3953 -123.3392 318° Northwest 446 513 29,900  Level Oakland Center
08:12PM 37.4875 -123.4450 318° Northwest 448 516 30,000  Climbing Oakland Center
08:14PM 37.5794 -123.5517 317° Northwest 448 516 29,900  Descending Oakland Center
08:15PM 37.6731 -123.6600 318° Northwest 450 518 30,000  Climbing Oakland Center
08:16PM 37.7658 -123.7675 318° Northwest 452 520 29,900 -60 Descending Oakland Center
08:17PM 37.8575 -123.8747 317° Northwest 448 516 29,900  Level Oakland Center
08:18PM 37.9503 -123.9831 317° Northwest 451 519 29,900  Level Oakland Center
08:19PM 38.0425 -124.0914 317° Northwest 452 520 29,900  Level Oakland Center
08:20PM 38.1339 -124.1997 317° Northwest 449 517 29,900  Level Oakland Center
08:21PM 38.2256 -124.3083 317° Northwest 450 518 29,900  Level Oakland Center
08:22PM 38.3350 -124.4422 316° Northwest 455 524 30,000  Climbing Oakland Center
08:23PM 38.4286 -124.5508 318° Northwest 455 524 30,000 -60 Level Oakland Center
08:24PM 38.5206 -124.6625 316° Northwest 457 526 29,900  Descending Oakland Center
08:25PM 38.6125 -124.7747 316° Northwest 457 526 30,000  Climbing Oakland Center
08:26PM 38.6964 -124.8750 317° Northwest 456 525 30,000  Level Oakland Center
08:27PM 38.8083 -125.0108 317° Northwest 459 528 30,000  Level Oakland Center
08:28PM 38.9017 -125.1236 317° Northwest 460 529 30,000  Level Oakland Center
08:29PM 38.9953 -125.2392 316° Northwest 464 534 30,000  Level Oakland Center
08:30PM 39.0872 -125.3531 316° Northwest 461 531 30,000  Level Oakland Center
08:31PM 39.1697 -125.4522 317° Northwest 459 528 30,000  Level Oakland Center
08:32PM 39.2789 -125.5892 316° Northwest 457 526 30,000  Level Oakland Center
08:33PM 39.3711 -125.7036 316° Northwest 459 528 30,000 -60 Level Oakland Center
08:34PM 39.4558 -125.8092 316° Northwest 459 528 29,900 -60 Descending Oakland Center
08:35PM 39.5481 -125.9236 316° Northwest 458 527 29,900  Level Oakland Center
08:36PM 39.6383 -126.0389 315° West 456 525 30,000  Climbing Oakland Center
08:37PM 39.7297 -126.1539 316° Northwest 456 525 30,000  Level Oakland Center
08:38PM 39.8389 -126.2917 316° Northwest 457 526 30,000 -60 Level Oakland Center
08:39PM 39.9294 -126.4058 316° Northwest 455 524 29,900  Descending Oakland Center
08:40PM 40.0189 -126.5208 315° West 454 522 30,000  Climbing Oakland Center
08:41PM 40.1114 -126.6347 317° Northwest 454 522 30,000  Level Oakland Center
08:42PM 40.2044 -126.7464 318° Northwest 455 524 30,000 -60 Level Oakland Center
08:43PM 40.2942 -126.8606 316° Northwest 452 520 29,900  Descending Oakland Center
08:44PM 40.3847 -126.9744 316° Northwest 451 519 30,000  Climbing Oakland Center
08:46PM 40.5167 -127.1500 316° Northwest 450 518 30,000  Level Oakland Oceanic (ODAPS)
08:52PM 41.0541 -127.8373 316° Northwest 450 518 30,000  Level FlightAware Transoceanic
08:53PM 41.1433 -127.9529 316° Northwest 450 518 30,000  Level FlightAware Transoceanic
08:54PM 41.2324 -128.0689 316° Northwest 450 518 30,000  Level FlightAware Transoceanic
08:55PM 41.3213 -128.1852 315° West 450 518 30,000  Level FlightAware Transoceanic
08:56PM 41.4102 -128.3018 315° West 450 518 30,000  Level FlightAware Transoceanic
08:57PM 41.4989 -128.4187 315° West 450 518 30,000  Level FlightAware Transoceanic
08:58PM 41.5875 -128.5359 315° West 450 518 30,000  Level FlightAware Transoceanic
08:59PM 41.6760 -128.6534 315° West 450 518 30,000  Level FlightAware Transoceanic
09:00PM 41.7643 -128.7713 315° West 450 518 30,000  Level FlightAware Transoceanic
09:01PM 41.8525 -128.8895 315° West 450 518 30,000  Level FlightAware Transoceanic
09:02PM 41.9407 -129.0080 315° West 450 518 30,000  Level FlightAware Transoceanic
09:03PM 42.0286 -129.1269 315° West 450 518 30,000  Level FlightAware Transoceanic
09:04PM 42.1165 -129.2461 315° West 450 518 30,000  Level FlightAware Transoceanic
09:05PM 42.2043 -129.3656 315° West 450 518 30,000  Level FlightAware Transoceanic
09:06PM 42.2919 -129.4854 315° West 450 518 30,000  Level FlightAware Transoceanic
09:07PM 42.3794 -129.6056 315° West 450 518 30,000  Level FlightAware Transoceanic
09:08PM 42.4667 -129.7261 314° West 450 518 30,000  Level FlightAware Transoceanic
09:09PM 42.5540 -129.8470 314° West 450 518 30,000  Level FlightAware Transoceanic
09:10PM 42.6411 -129.9682 314° West 450 518 30,000  Level FlightAware Transoceanic
09:11PM 42.7281 -130.0897 314° West 450 518 30,000  Level FlightAware Transoceanic
09:12PM 42.8149 -130.2115 314° West 450 518 30,000  Level FlightAware Transoceanic
09:12PM 42.8833 -130.3000 314° West 457 526 30,000  Level Oakland Oceanic (ODAPS)
09:13PM 42.9017 -130.3338 314° West 450 518 30,000  Level FlightAware Transoceanic
09:14PM 42.9883 -130.4563 314° West 450 518 30,000  Level FlightAware Transoceanic
09:15PM 43.0747 -130.5792 314° West 450 518 30,000  Level FlightAware Transoceanic
09:16PM 43.1611 -130.7025 314° West 450 518 30,000  Level FlightAware Transoceanic
09:17PM 43.2473 -130.8260 314° West 450 518 30,000  Level FlightAware Transoceanic
09:18PM 43.3333 -130.9500 315° West 450 518 30,000  Level FlightAware Transoceanic
09:18PM 43.3333 -130.9500 315° West 449 517 30,000  Level Oakland Oceanic (ODAPS)
09:19PM 43.4242 -131.0738 315° West 457 526 30,000  Level FlightAware Transoceanic
09:20PM 43.5149 -131.1980 315° West 457 526 30,000  Level FlightAware Transoceanic
09:21PM 43.6055 -131.3225 315° West 457 526 30,000  Level FlightAware Transoceanic
09:22PM 43.6959 -131.4474 315° West 457 526 30,000  Level FlightAware Transoceanic
09:23PM 43.7862 -131.5727 315° West 457 526 30,000  Level FlightAware Transoceanic
09:24PM 43.8605 -131.6762 315° West 449 517 30,000  Level FlightAware Transoceanic
09:25PM 43.9479 -131.7984 315° West 449 517 30,000  Level FlightAware Transoceanic
09:26PM 44.0352 -131.9211 315° West 449 517 30,000  Level FlightAware Transoceanic
09:27PM 44.1223 -132.0441 315° West 449 517 30,000  Level FlightAware Transoceanic
09:28PM 44.2093 -132.1674 314° West 449 517 30,000  Level FlightAware Transoceanic
09:29PM 44.2962 -132.2912 314° West 449 517 30,000  Level FlightAware Transoceanic
09:30PM 44.3829 -132.4153 314° West 449 517 30,000  Level FlightAware Transoceanic
09:31PM 44.4696 -132.5397 314° West 449 517 30,000  Level FlightAware Transoceanic
09:32PM 44.5560 -132.6645 314° West 449 517 30,000  Level FlightAware Transoceanic
09:33PM 44.6424 -132.7897 314° West 449 517 30,000  Level FlightAware Transoceanic
09:34PM 44.7286 -132.9153 314° West 449 517 30,000  Level FlightAware Transoceanic
09:35PM 44.8146 -133.0413 314° West 449 517 30,000  Level FlightAware Transoceanic
09:36PM 44.9006 -133.1676 314° West 449 517 30,000  Level FlightAware Transoceanic
09:37PM 44.9864 -133.2943 314° West 449 517 30,000  Level FlightAware Transoceanic
09:38PM 45.0720 -133.4214 314° West 449 517 30,000  Level FlightAware Transoceanic
09:39PM 45.1575 -133.5488 314° West 449 517 30,000  Level FlightAware Transoceanic
09:39PM 45.2000 -133.6167 313° West 450 518 30,000  Level Oakland Oceanic (ODAPS)
09:40PM 45.2429 -133.6767 313° West 449 517 30,000  Level FlightAware Transoceanic
09:41PM 45.3281 -133.8049 313° West 449 517 30,000  Level FlightAware Transoceanic
09:42PM 45.4132 -133.9335 313° West 449 517 30,000  Level FlightAware Transoceanic
09:43PM 45.4981 -134.0625 313° West 449 517 30,000  Level FlightAware Transoceanic
09:44PM 45.5829 -134.1919 313° West 449 517 30,000  Level FlightAware Transoceanic
09:45PM 45.7042 -134.3819 313° West 450 518 30,000  Level FlightAware Transoceanic
09:46PM 45.7877 -134.5108 313° West 450 518 30,000  Level FlightAware Transoceanic
09:47PM 45.8711 -134.6400 313° West 450 518 30,000  Level FlightAware Transoceanic
09:48PM 45.9543 -134.7697 313° West 450 518 30,000  Level FlightAware Transoceanic
09:49PM 46.0374 -134.8997 313° West 450 518 30,000  Level FlightAware Transoceanic
09:50PM 46.1204 -135.0302 312° West 450 518 30,000  Level FlightAware Transoceanic
09:51PM 46.2032 -135.1610 312° West 450 518 30,000  Level FlightAware Transoceanic
09:52PM 46.2858 -135.2922 312° West 450 518 30,000  Level FlightAware Transoceanic
09:53PM 46.3683 -135.4238 312° West 450 518 30,000  Level FlightAware Transoceanic
09:54PM 46.4506 -135.5559 312° West 450 518 30,000  Level FlightAware Transoceanic
09:55PM 46.5328 -135.6883 312° West 450 518 30,000  Level FlightAware Transoceanic
09:56PM 46.6149 -135.8211 312° West 450 518 30,000  Level FlightAware Transoceanic
09:57PM 46.6967 -135.9543 312° West 450 518 30,000  Level FlightAware Transoceanic
09:58PM 46.7785 -136.0879 312° West 450 518 30,000  Level FlightAware Transoceanic
09:59PM 46.8600 -136.2220 312° West 450 518 30,000  Level FlightAware Transoceanic
10:00PM 46.9414 -136.3564 312° West 450 518 30,000  Level FlightAware Transoceanic
10:01PM 47.0227 -136.4912 311° West 450 518 30,000  Level FlightAware Transoceanic
10:02PM 47.1038 -136.6265 311° West 450 518 30,000  Level FlightAware Transoceanic
10:03PM 47.1847 -136.7622 311° West 450 518 30,000  Level FlightAware Transoceanic
10:04PM 47.2655 -136.8982 311° West 450 518 30,000  Level FlightAware Transoceanic
10:05PM 47.3461 -137.0347 311° West 450 518 30,000  Level FlightAware Transoceanic
10:06PM 47.4266 -137.1717 311° West 450 518 30,000 1,620 Level FlightAware Transoceanic
10:06PM 47.4500 -137.2000 311° West 455 524 32,000  Climbing Oakland Oceanic (ODAPS)
10:07PM 47.5069 -137.3090 311° West 450 518 30,000 -1,140 Descending FlightAware Transoceanic
10:08PM 47.5870 -137.4467 311° West 450 518 30,000  Level FlightAware Transoceanic
10:09PM 47.6670 -137.5849 311° West 450 518 30,000  Level FlightAware Transoceanic
10:10PM 47.7467 -137.7235 310° West 450 518 30,000  Level FlightAware Transoceanic
10:11PM 47.8264 -137.8625 310° West 450 518 30,000 960 Level FlightAware Transoceanic
10:12PM 47.9468 -138.0660 310° West 455 524 32,000 960 Climbing FlightAware Transoceanic
10:13PM 48.0289 -138.2119 310° West 455 524 32,000  Level FlightAware Transoceanic
10:14PM 48.1109 -138.3583 310° West 455 524 32,000  Level FlightAware Transoceanic
10:15PM 48.1927 -138.5052 310° West 455 524 32,000  Level FlightAware Transoceanic
10:16PM 48.2743 -138.6525 310° West 455 524 32,000  Level FlightAware Transoceanic
10:17PM 48.3557 -138.8003 310° West 455 524 32,000  Level FlightAware Transoceanic
10:18PM 48.4369 -138.9486 309° West 455 524 32,000  Level FlightAware Transoceanic
10:19PM 48.5179 -139.0974 309° West 455 524 32,000  Level FlightAware Transoceanic
10:20PM 48.5988 -139.2466 309° West 455 524 32,000  Level FlightAware Transoceanic
10:21PM 48.6794 -139.3963 309° West 455 524 32,000  Level FlightAware Transoceanic
10:22PM 48.7598 -139.5465 309° West 455 524 32,000  Level FlightAware Transoceanic
10:23PM 48.8401 -139.6972 309° West 455 524 32,000  Level FlightAware Transoceanic
10:24PM 48.9202 -139.8484 309° West 455 524 32,000  Level FlightAware Transoceanic
10:25PM 49.0000 -140.0000 306° West 455 524 32,000  Level FlightAware Transoceanic
10:25PM 49.0000 -140.0000 306° West 448 516 32,000  Level Oakland Oceanic (ODAPS)
10:26PM 49.0746 -140.1554 306° West 455 524 32,000  Level FlightAware Transoceanic
10:27PM 49.1489 -140.3112 306° West 455 524 32,000  Level FlightAware Transoceanic
10:28PM 49.2230 -140.4675 306° West 455 524 32,000  Level FlightAware Transoceanic
10:29PM 49.2969 -140.6242 306° West 455 524 32,000  Level FlightAware Transoceanic
10:30PM 49.3706 -140.7815 306° West 455 524 32,000  Level FlightAware Transoceanic
10:31PM 49.4441 -140.9392 306° West 455 524 32,000  Level FlightAware Transoceanic
10:32PM 49.4368 -140.9234 306° West 448 516 32,000  Level FlightAware Transoceanic
10:32PM 49.5333 -141.1167 305° West 449 517 32,000  Level Oakland Oceanic (ODAPS)
10:33PM 49.5089 -141.0789 305° West 448 516 32,000  Level FlightAware Transoceanic
10:34PM 49.5807 -141.2348 305° West 448 516 32,000  Level FlightAware Transoceanic
10:35PM 49.6524 -141.3912 305° West 448 516 32,000  Level FlightAware Transoceanic
10:36PM 49.7238 -141.5481 305° West 448 516 32,000  Level FlightAware Transoceanic
10:37PM 49.7951 -141.7054 305° West 448 516 32,000  Level FlightAware Transoceanic
10:38PM 49.8661 -141.8632 305° West 448 516 32,000  Level FlightAware Transoceanic
10:39PM 49.9664 -142.0739 305° West 449 517 32,000  Level FlightAware Transoceanic
10:40PM 50.0378 -142.2351 305° West 449 517 32,000  Level FlightAware Transoceanic
10:41PM 50.1090 -142.3968 304° West 449 517 32,000  Level FlightAware Transoceanic
10:42PM 50.1800 -142.5590 304° West 449 517 32,000  Level FlightAware Transoceanic
10:43PM 50.2507 -142.7216 304° West 449 517 32,000  Level FlightAware Transoceanic
10:44PM 50.3212 -142.8848 304° West 449 517 32,000  Level FlightAware Transoceanic
10:45PM 50.3915 -143.0484 304° West 449 517 32,000  Level FlightAware Transoceanic
10:46PM 50.4616 -143.2125 304° West 449 517 32,000  Level FlightAware Transoceanic
10:47PM 50.5314 -143.3771 304° West 449 517 32,000  Level FlightAware Transoceanic
10:48PM 50.6009 -143.5422 304° West 449 517 32,000  Level FlightAware Transoceanic
10:49PM 50.6703 -143.7077 303° West 449 517 32,000  Level FlightAware Transoceanic
10:50PM 50.7394 -143.8738 303° West 449 517 32,000  Level FlightAware Transoceanic
10:51PM 50.8083 -144.0403 303° West 449 517 32,000  Level FlightAware Transoceanic
10:52PM 50.8769 -144.2074 303° West 449 517 32,000  Level FlightAware Transoceanic
10:53PM 50.9453 -144.3749 303° West 449 517 32,000  Level FlightAware Transoceanic
10:54PM 51.0135 -144.5429 303° West 449 517 32,000  Level FlightAware Transoceanic
10:55PM 51.0814 -144.7114 303° West 449 517 32,000  Level FlightAware Transoceanic
10:56PM 51.1491 -144.8804 302° West 449 517 32,000  Level FlightAware Transoceanic
10:57PM 51.2165 -145.0499 302° West 449 517 32,000  Level FlightAware Transoceanic
10:58PM 51.2837 -145.2199 302° West 449 517 32,000  Level FlightAware Transoceanic
10:59PM 51.3506 -145.3904 302° West 449 517 32,000  Level FlightAware Transoceanic
10:59PM 51.3167 -145.3167 302° West 435 501 32,000  Level Oakland Oceanic (ODAPS)
11:00PM 51.4173 -145.5614 302° West 449 517 32,000  Level FlightAware Transoceanic
11:01PM 51.4838 -145.7329 302° West 449 517 32,000  Level FlightAware Transoceanic
11:02PM 51.5500 -145.9049 302° West 449 517 32,000  Level FlightAware Transoceanic
11:03PM 51.6159 -146.0774 302° West 449 517 32,000  Level FlightAware Transoceanic
11:04PM 51.6816 -146.2504 301° West 449 517 32,000  Level FlightAware Transoceanic
11:05PM 51.6928 -146.2905 301° West 435 501 32,000  Level FlightAware Transoceanic
11:06PM 51.7547 -146.4543 301° West 435 501 32,000  Level FlightAware Transoceanic
11:07PM 51.8164 -146.6187 301° West 435 501 32,000  Level FlightAware Transoceanic
11:08PM 51.8778 -146.7834 301° West 435 501 32,000  Level FlightAware Transoceanic
11:09PM 51.9390 -146.9487 301° West 435 501 32,000  Level FlightAware Transoceanic
11:10PM 52.0000 -147.1143 301° West 435 501 32,000  Level FlightAware Transoceanic
11:11PM 52.0607 -147.2804 301° West 435 501 32,000  Level FlightAware Transoceanic
11:12PM 52.1212 -147.4470 301° West 435 501 32,000  Level FlightAware Transoceanic
11:13PM 52.1815 -147.6140 300° West 435 501 32,000  Level FlightAware Transoceanic
11:14PM 52.2416 -147.7815 300° West 435 501 32,000  Level FlightAware Transoceanic
11:15PM 52.3013 -147.9494 300° West 435 501 32,000  Level FlightAware Transoceanic
11:16PM 52.3609 -148.1178 300° West 435 501 32,000  Level FlightAware Transoceanic
11:17PM 52.4202 -148.2866 300° West 435 501 32,000  Level FlightAware Transoceanic
11:18PM 52.4793 -148.4559 300° West 435 501 32,000  Level FlightAware Transoceanic
11:19PM 52.5382 -148.6257 300° West 435 501 32,000  Level FlightAware Transoceanic
11:20PM 52.5967 -148.7959 299° West 435 501 32,000  Level FlightAware Transoceanic
11:21PM 52.6551 -148.9665 299° West 435 501 32,000  Level FlightAware Transoceanic
11:22PM 52.7132 -149.1376 299° West 435 501 32,000  Level FlightAware Transoceanic
11:23PM 52.7711 -149.3092 299° West 435 501 32,000  Level FlightAware Transoceanic
11:24PM 52.8287 -149.4812 299° West 435 501 32,000  Level FlightAware Transoceanic
11:25PM 52.8860 -149.6537 299° West 435 501 32,000  Level FlightAware Transoceanic
11:26PM 52.9431 -149.8266 299° West 435 501 32,000  Level FlightAware Transoceanic
11:26PM 52.9500 -149.8667 302° West 468 539 32,000  Level Oakland Oceanic (ODAPS)
11:27PM 53.0000 -150.0000 284° West 435 501 32,000  Level FlightAware Transoceanic
11:27PM 53.0000 -150.0000 284° West 448 516 32,000  Level Oakland Oceanic (ODAPS)
11:28PM 53.0298 -150.2073 283° West 435 501 32,000  Level FlightAware Transoceanic
11:29PM 53.0593 -150.4148 283° West 435 501 32,000  Level FlightAware Transoceanic
11:30PM 53.0885 -150.6227 283° West 435 501 32,000  Level FlightAware Transoceanic
11:31PM 53.1172 -150.8308 283° West 435 501 32,000  Level FlightAware Transoceanic
11:32PM 53.1487 -151.0619 283° West 468 539 32,000  Level FlightAware Transoceanic
11:33PM 53.1668 -151.1968 283° West 448 516 32,000  Level FlightAware Transoceanic
11:34PM 53.1934 -151.3971 282° West 448 516 32,000  Level FlightAware Transoceanic
11:35PM 53.2197 -151.5977 282° West 448 516 32,000  Level FlightAware Transoceanic
11:36PM 53.2457 -151.7986 282° West 448 516 32,000  Level FlightAware Transoceanic
11:37PM 53.2713 -151.9996 282° West 448 516 32,000  Level FlightAware Transoceanic
11:38PM 53.2966 -152.2010 282° West 448 516 32,000  Level FlightAware Transoceanic
11:39PM 53.3215 -152.4025 282° West 448 516 32,000  Level FlightAware Transoceanic
11:40PM 53.3461 -152.6043 281° West 448 516 32,000  Level FlightAware Transoceanic
11:41PM 53.3704 -152.8063 281° West 448 516 32,000  Level FlightAware Transoceanic
11:42PM 53.3943 -153.0086 281° West 448 516 32,000  Level FlightAware Transoceanic
11:43PM 53.4179 -153.2111 281° West 448 516 32,000  Level FlightAware Transoceanic
11:44PM 53.4411 -153.4138 281° West 448 516 32,000  Level FlightAware Transoceanic
11:45PM 53.4640 -153.6167 281° West 448 516 32,000  Level FlightAware Transoceanic
11:46PM 53.4865 -153.8199 280° West 448 516 32,000  Level FlightAware Transoceanic
11:47PM 53.5088 -154.0232 280° West 448 516 32,000  Level FlightAware Transoceanic
11:48PM 53.5306 -154.2268 280° West 448 516 32,000  Level FlightAware Transoceanic
11:49PM 53.5521 -154.4306 280° West 448 516 32,000  Level FlightAware Transoceanic
11:50PM 53.5733 -154.6345 280° West 448 516 32,000  Level FlightAware Transoceanic
11:51PM 53.5941 -154.8387 280° West 448 516 32,000  Level FlightAware Transoceanic
11:52PM 53.6146 -155.0431 279° West 448 516 32,000  Level FlightAware Transoceanic
11:52PM 53.6333 -155.2667 279° West 456 525 32,000  Level Oakland Oceanic (ODAPS)
11:53PM 53.6347 -155.2477 279° West 448 516 32,000  Level FlightAware Transoceanic
11:54PM 53.6545 -155.4525 279° West 448 516 32,000  Level FlightAware Transoceanic
11:55PM 53.6739 -155.6574 279° West 448 516 32,000  Level FlightAware Transoceanic
11:56PM 53.6930 -155.8626 279° West 448 516 32,000  Level FlightAware Transoceanic
11:57PM 53.7117 -156.0679 279° West 448 516 32,000  Level FlightAware Transoceanic
11:58PM 53.7300 -156.2734 279° West 448 516 32,000  Level FlightAware Transoceanic
11:59PM 53.7518 -156.5491 278° West 456 525 32,000  Level FlightAware Transoceanic
12:01AM 53.8052 -157.1857 278° West 456 525 32,000  Level FlightAware Transoceanic
12:01AM 53.8055 -157.1893 278° West 456 525 32,000  Level FlightAware Transoceanic
12:03AM 53.8231 -157.4078 278° West 456 525 32,000  Level FlightAware Transoceanic
12:03AM 53.8231 -157.4078 278° West 456 525 32,000  Level FlightAware Transoceanic
12:04AM 53.8400 -157.6230 277° West 456 525 32,000  Level FlightAware Transoceanic
12:04AM 53.8400 -157.6230 277° West 456 525 32,000  Level FlightAware Transoceanic
12:05AM 53.8564 -157.8383 277° West 456 525 32,000  Level FlightAware Transoceanic
12:06AM 53.8726 -158.0538 277° West 456 525 32,000  Level FlightAware Transoceanic
12:07AM 53.8883 -158.2694 277° West 456 525 32,000  Level FlightAware Transoceanic
12:08AM 53.9036 -158.4852 277° West 456 525 32,000  Level FlightAware Transoceanic
12:09AM 53.9185 -158.7012 277° West 456 525 32,000  Level FlightAware Transoceanic
12:10AM 53.9331 -158.9173 276° West 456 525 32,000  Level FlightAware Transoceanic
12:11AM 53.9472 -159.1335 276° West 456 525 32,000  Level FlightAware Transoceanic
12:12AM 53.9610 -159.3499 276° West 456 525 32,000  Level FlightAware Transoceanic
12:13AM 53.9744 -159.5665 276° West 456 525 32,000  Level FlightAware Transoceanic
12:14AM 53.9874 -159.7832 276° West 456 525 32,000  Level FlightAware Transoceanic
12:15AM 54.0000 -160.0000 274° West 456 525 32,000  Level FlightAware Transoceanic
12:15AM 54.0000 -160.1500 273° West 470 541 32,000  Level Anchorage Center
12:16AM 54.0092 -160.2266 274° West 456 525 32,000  Level FlightAware Transoceanic
12:16AM 54.0000 -160.3833 270° West 460 529 32,000  Level Anchorage Center
12:17AM 54.0180 -160.4532 274° West 456 525 32,000  Level FlightAware Transoceanic
12:17AM 54.0167 -160.6000 278° West 460 529 32,000  Level Anchorage Center
12:18AM 54.0263 -160.6800 273° West 456 525 32,000  Level FlightAware Transoceanic
12:18AM 54.0167 -160.8167 270° West 460 529 32,000  Level Anchorage Center
12:19AM 54.0343 -160.9068 273° West 456 525 32,000  Level FlightAware Transoceanic
12:19AM 54.0333 -161.0333 278° West 450 518 32,000  Level Anchorage Center
12:20AM 54.0418 -161.1338 273° West 456 525 32,000  Level FlightAware Transoceanic
12:20AM 54.0333 -161.2500 270° West 450 518 32,000  Level Anchorage Center
12:21AM 54.0500 -161.4667 278° West 460 529 32,000  Level Anchorage Center
12:22AM 54.0500 -161.6833 270° West 460 529 32,000  Level Anchorage Center
12:23AM 54.0500 -161.9167 270° West 460 529 32,000  Level Anchorage Center
12:24AM 54.0667 -162.1333 278° West 460 529 32,000  Level Anchorage Center
12:25AM 54.0667 -162.3500 270° West 460 529 32,000  Level Anchorage Center
12:26AM 54.0667 -162.5667 270° West 460 529 32,000  Level Anchorage Center
12:27AM 54.0833 -162.8000 277° West 460 529 32,000  Level Anchorage Center
12:28AM 54.0833 -163.0167 270° West 460 529 32,000  Level Anchorage Center
12:29AM 54.0833 -163.2500 270° West 470 541 32,000  Level Anchorage Center
12:30AM 54.0833 -163.4667 270° West 460 529 32,000  Level Anchorage Center
12:31AM 54.0833 -163.6833 270° West 460 529 32,000  Level Anchorage Center
12:32AM 54.1000 -163.9167 277° West 460 529 32,000  Level Anchorage Center
12:33AM 54.1000 -164.1333 270° West 460 529 32,000  Level Anchorage Center
12:34AM 54.1000 -164.3500 270° West 470 541 32,000  Level Anchorage Center
12:35AM 54.1000 -164.5833 270° West 460 529 32,000  Level Anchorage Center
12:36AM 54.1000 -164.8000 270° West 460 529 32,000  Level Anchorage Center
12:37AM 54.1000 -165.0333 270° West 470 541 32,000  Level Anchorage Center
12:38AM 54.1000 -165.2500 270° West 460 529 32,000  Level Anchorage Center
12:39AM 54.1000 -165.4167 270° West 450 518 32,000  Level Anchorage Center
12:40AM 54.1000 -165.6500 270° West 460 529 32,000  Level Anchorage Center
12:41AM 54.1000 -165.8667 270° West 460 529 32,000  Level Anchorage Center
12:42AM 54.1000 -166.0833 270° West 460 529 32,000  Level Anchorage Center
12:43AM 54.0833 -166.3000 263° West 460 529 32,000  Level Anchorage Center
12:44AM 54.0833 -166.5167 270° West 460 529 32,000  Level Anchorage Center
12:45AM 54.0833 -166.7500 270° West 460 529 32,000  Level Anchorage Center
12:46AM 54.0833 -166.9667 270° West 460 529 32,000  Level Anchorage Center
12:47AM 54.0833 -167.1833 270° West 460 529 32,000  Level Anchorage Center
12:48AM 54.0667 -167.4000 263° West 460 529 32,000  Level Anchorage Center
12:49AM 54.0667 -167.6167 270° West 460 529 32,000  Level Anchorage Center
12:50AM 54.0667 -167.8500 270° West 460 529 32,000  Level Anchorage Center
12:51AM 54.0667 -168.0667 270° West 460 529 32,000  Level Anchorage Center
12:52AM 54.0500 -168.3167 264° West 460 529 32,000  Level Anchorage Center
12:53AM 54.0500 -168.5333 270° West 460 529 32,000  Level Anchorage Center
12:54AM 54.0333 -168.7333 262° West 450 518 32,000  Level Anchorage Center
12:55AM 54.0333 -168.9667 270° West 460 529 32,000  Level Anchorage Center
12:56AM 54.0167 -169.2000 263° West 470 541 32,000  Level Anchorage Center
12:57AM 54.0167 -169.4167 270° West 460 529 32,000  Level Anchorage Center
12:58AM 54.0000 -169.6333 263° West 460 529 32,000  Level Anchorage Center
12:59AM 54.0000 -169.8500 270° West 450 518 32,000  Level Anchorage Center
01:00AM 54.0000 -170.0667 270° West 460 529 32,000  Level Anchorage Center
01:01AM 54.0000 -170.3000 270° West 470 541 32,000  Level Anchorage Center
01:02AM 54.0167 -170.5167 278° West 470 541 32,000  Level Anchorage Center
01:03AM 54.0167 -170.7500 270° West 460 529 32,000  Level Anchorage Center
01:04AM 54.0333 -170.9667 278° West 480 552 32,000  Level Anchorage Center
01:05AM 54.0333 -171.2000 270° West 470 541 32,000  Level Anchorage Center
01:06AM 54.0500 -171.4333 277° West 470 541 32,000  Level Anchorage Center
01:07AM 54.0500 -171.6500 270° West 470 541 32,000  Level Anchorage Center
01:08AM 54.0500 -171.8833 270° West 480 552 32,000  Level Anchorage Center
01:09AM 54.0667 -172.1000 278° West 470 541 32,000  Level Anchorage Center
01:10AM 54.0667 -172.3333 270° West 470 541 32,000  Level Anchorage Center
01:11AM 54.0667 -172.5500 270° West 460 529 32,000  Level Anchorage Center
01:12AM 54.0833 -172.7333 279° West 470 541 32,000  Level Anchorage Center
01:13AM 54.0833 -172.9500 270° West 460 529 32,000  Level Anchorage Center
01:14AM 54.0833 -173.1667 270° West 470 541 32,000  Level Anchorage Center
01:15AM 54.0833 -173.4000 270° West 460 529 32,000  Level Anchorage Center
01:16AM 54.0833 -173.6167 270° West 470 541 32,000  Level Anchorage Center
01:17AM 54.1000 -173.8500 277° West 480 552 32,000  Level Anchorage Center
01:18AM 54.1000 -174.0667 270° West 470 541 32,000  Level Anchorage Center
01:19AM 54.1000 -174.3000 270° West 470 541 32,000  Level Anchorage Center
01:20AM 54.1000 -174.5167 270° West 460 529 32,000  Level Anchorage Center
01:21AM 54.1000 -174.7500 270° West 480 552 32,000  Level Anchorage Center
01:23AM 54.1005 -175.0476 270° West  Level FlightAware Approximate
01:30AM 54.0908 -176.6293 270° West  Level FlightAware Approximate
01:31AM 54.0877 -176.8552 269° West  Level FlightAware Approximate
01:32AM 54.0842 -177.0810 269° West  Level FlightAware Approximate
01:33AM 54.0802 -177.3068 268° West  Level FlightAware Approximate
01:34AM 54.0758 -177.5325 268° West  Level FlightAware Approximate
01:35AM 54.0710 -177.7583 268° West  Level FlightAware Approximate
01:36AM 54.0658 -177.9839 268° West  Level FlightAware Approximate
01:37AM 54.0601 -178.2095 268° West  Level FlightAware Approximate
01:38AM 54.0540 -178.4350 267° West  Level FlightAware Approximate
01:39AM 54.0475 -178.6604 267° West  Level FlightAware Approximate
01:39AM 54.0500 -178.5333 267° West 472 543 33,000  Level Anchorage Center
01:40AM 54.0405 -178.8858 267° West  Level FlightAware Approximate
01:41AM 54.0332 -179.1111 267° West  Level FlightAware Approximate
01:42AM 54.0254 -179.3363 267° West  Level FlightAware Approximate
01:43AM 54.0172 -179.5615 267° West  Level FlightAware Approximate
01:44AM 54.0086 -179.7865 266° West  Level FlightAware Approximate
01:45AM 54.0000 -180.0000 284° West 472 543 33,000  Level FlightAware Transoceanic
01:45AM 54.0000 180.0000 284° West 469 540 33,000  Level Anchorage Center
01:46AM 54.0305 179.7886 284° West 472 543 33,000  Level FlightAware Transoceanic
01:46AM 54.0333 179.6833 283° West 470 541 33,000  Level Anchorage Center
01:47AM 54.0606 179.5768 284° West 472 543 33,000  Level FlightAware Transoceanic
01:47AM 54.0667 179.5000 287° West 480 552 33,000  Level Anchorage Center
01:48AM 54.0903 179.3647 283° West 472 543 33,000  Level FlightAware Transoceanic
01:48AM 54.0833 179.2667 277° West 460 529 33,000  Level Anchorage Center
01:49AM 54.1197 179.1524 283° West 472 543 33,000  Level FlightAware Transoceanic
01:49AM 54.1167 179.0333 284° West 460 529 33,000  Level Anchorage Center
01:50AM 54.1486 178.9397 283° West 472 543 33,000  Level FlightAware Transoceanic
01:50AM 54.1500 178.8500 287° West 450 518 33,000  Level Anchorage Center
01:51AM 54.1772 178.7268 283° West 469 540 33,000  Level FlightAware Transoceanic
01:51AM 54.1667 178.6333 278° West 450 518 33,000  Level Anchorage Center
01:52AM 54.2055 178.5135 283° West 469 540 33,000  Level FlightAware Transoceanic
01:52AM 54.2000 178.4500 287° West 450 518 33,000  Level Anchorage Center
01:53AM 54.2167 178.2167 277° West 450 518 33,000  Level Anchorage Center
01:54AM 54.2167 178.0333 270° West 450 518 33,000  Level Anchorage Center
01:55AM 54.2333 177.8000 277° West 440 506 33,000  Level Anchorage Center
01:56AM 54.2333 177.6167 270° West 440 506 33,000  Level Anchorage Center
01:57AM 54.2333 177.4000 270° West 440 506 33,000  Level Anchorage Center
01:58AM 54.2333 177.1667 270° West 440 506 33,000  Level Anchorage Center
01:59AM 54.2333 176.9833 270° West 440 506 33,000  Level Anchorage Center
02:00AM 54.2333 176.7500 270° West 440 506 33,000  Level Anchorage Center
02:01AM 54.2333 176.5667 270° West 440 506 33,000  Level Anchorage Center
02:02AM 54.2333 176.3333 270° West 450 518 33,000  Level Anchorage Center
02:03AM 54.2333 176.1500 270° West 450 518 33,000  Level Anchorage Center
02:04AM 54.2333 175.9333 270° West 440 506 33,000  Level Anchorage Center
02:05AM 54.2333 175.7000 270° West 440 506 33,000  Level Anchorage Center
02:06AM 54.2333 175.5167 270° West 440 506 33,000  Level Anchorage Center
02:07AM 54.2333 175.2833 270° West 450 518 33,000 180 Level Anchorage Center
02:09AM 54.2325 175.0025 270° West  Level FlightAware Approximate
02:11AM 54.2333 174.4333 268° West 470 541 34,000  Level Anchorage Center
02:12AM 54.2333 174.2333 270° West 460 529 34,000  Level Anchorage Center
02:13AM 54.2167 174.0000 263° West 470 541 34,000  Level Anchorage Center
02:14AM 54.2167 173.7500 270° West 470 541 34,000  Level Anchorage Center
02:15AM 54.2167 173.5667 270° West 470 541 34,000  Level Anchorage Center
02:16AM 54.2156 173.4305 270° West  Level FlightAware Approximate
02:16AM 54.2167 173.3167 270° West 480 552 34,000  Level Anchorage Center
02:17AM 54.2115 173.2060 268° West  Level FlightAware Approximate
02:17AM 54.2000 173.1167 262° West 470 541 34,000  Level Anchorage Center
02:18AM 54.2000 172.8833 270° West 470 541 34,000  Level Anchorage Center
02:19AM 54.1833 172.6833 262° West 480 552 34,000  Level Anchorage Center
02:20AM 54.1167 172.4667 242° Southwest 480 552 34,000  Level Anchorage Center
02:21AM 54.0167 172.2667 230° Southwest 490 564 34,000  Level Anchorage Center
02:22AM 53.9500 172.1000 236° Southwest 510 587 34,000  Level Anchorage Center
02:23AM 53.8667 171.8833 237° Southwest 500 575 34,000  Level Anchorage Center
02:24AM 53.8000 171.7333 233° Southwest 470 541 34,000  Level Anchorage Center
02:25AM 53.7167 171.5333 235° Southwest 490 564 34,000  Level Anchorage Center
02:26AM 53.6500 171.3833 233° Southwest 490 564 34,000  Level Anchorage Center
02:27AM 53.5667 171.1833 235° Southwest 490 564 34,000  Level Anchorage Center
02:28AM 53.4833 170.9833 235° Southwest 480 552 34,000  Level Anchorage Center
02:29AM 53.4167 170.8333 233° Southwest 480 552 34,000  Level Anchorage Center
02:30AM 53.3333 170.6333 235° Southwest 480 552 34,000  Level Anchorage Center
02:31AM 53.2500 170.4667 230° Southwest 490 564 34,000  Level Anchorage Center
02:32AM 53.1667 170.2833 233° Southwest 480 552 34,000  Level Anchorage Center
02:33AM 53.1000 170.1167 236° Southwest 490 564 34,000  Level Anchorage Center
02:34AM 53.0167 169.9333 233° Southwest 490 564 34,000  Level Anchorage Center
02:35AM 52.9333 169.7167 238° Southwest 500 575 34,000  Level Anchorage Center
02:36AM 52.8833 169.5500 244° Southwest 490 564 34,000  Level Anchorage Center
02:37AM 52.8000 169.3333 238° Southwest 480 552 34,000  Level Anchorage Center
02:38AM 52.7500 169.1667 244° Southwest 500 575 34,000  Level Anchorage Center
02:39AM 52.6833 168.9500 243° Southwest 480 552 34,000  Level Anchorage Center
02:40AM 52.6167 168.7833 237° Southwest 490 564 34,000  Level Anchorage Center
02:41AM 52.5500 168.5667 243° Southwest 480 552 34,000  Level Anchorage Center
02:42AM 52.4833 168.4000 237° Southwest 500 575 34,000  Level Anchorage Center
02:43AM 52.4000 168.1833 238° Southwest 500 575 34,000  Level Anchorage Center
02:44AM 52.3333 167.9833 241° Southwest 490 564 34,000  Level Anchorage Center
02:45AM 52.2667 167.8167 237° Southwest 500 575 34,000  Level Anchorage Center
02:48AM 52.1866 167.5942 240° Southwest  Level FlightAware Approximate
02:55AM 51.7176 166.3297 239° Southwest  Level FlightAware Approximate
02:56AM 51.6495 166.1512 238° Southwest  Level FlightAware Approximate
02:57AM 51.5812 165.9733 238° Southwest  Level FlightAware Approximate
02:57AM 51.4333 165.5500 237° Southwest 512 589 34,000  Level Anchorage Center
02:58AM 51.5125 165.7958 238° Southwest  Level FlightAware Approximate
02:58AM 51.3333 165.3167 237° Southwest 514 592 34,000  Level Anchorage Center
02:59AM 51.4436 165.6190 238° Southwest  Level FlightAware Approximate
03:00AM 51.3750 165.4420 238° Southwest  Level FlightAware Approximate
03:01AM 51.3064 165.2654 238° Southwest  Level FlightAware Approximate
03:02AM 51.2375 165.0893 238° Southwest  Level FlightAware Approximate
03:03AM 50.9500 164.3833 237° Southwest 512 589 34,000  Level FlightAware Transoceanic
03:03AM 50.9500 164.3833 237° Southwest 515 593 34,000  Level Anchorage Center
03:04AM 50.8711 164.1918 237° Southwest 514 592 34,000  Level FlightAware Transoceanic
03:05AM 50.7919 164.0009 237° Southwest 514 592 34,000  Level FlightAware Transoceanic
03:06AM 50.7123 163.8106 236° Southwest 514 592 34,000  Level FlightAware Transoceanic
03:07AM 50.6325 163.6210 236° Southwest 514 592 34,000  Level FlightAware Transoceanic
03:08AM 50.5523 163.4320 236° Southwest 514 592 34,000  Level FlightAware Transoceanic
03:09AM 50.4719 163.2437 236° Southwest 514 592 34,000  Level FlightAware Transoceanic
03:10AM 50.4209 163.1251 236° Southwest 515 593 34,000  Level FlightAware Transoceanic
03:11AM 50.3442 162.9477 236° Southwest 515 593 34,000  Level FlightAware Transoceanic
03:12AM 50.2673 162.7708 236° Southwest 515 593 34,000  Level FlightAware Transoceanic
03:13AM 50.1901 162.5945 236° Southwest 515 593 34,000  Level FlightAware Transoceanic
03:14AM 50.1126 162.4188 235° Southwest 515 593 34,000  Level FlightAware Transoceanic
03:15AM 50.0348 162.2436 235° Southwest 515 593 34,000  Level FlightAware Transoceanic
03:16AM 49.9568 162.0690 235° Southwest 515 593 34,000  Level FlightAware Transoceanic
03:17AM 49.8786 161.8950 235° Southwest 515 593 34,000  Level FlightAware Transoceanic
03:18AM 49.8000 161.7216 235° Southwest 515 593 34,000  Level FlightAware Transoceanic
03:19AM 49.7212 161.5487 235° Southwest 515 593 34,000  Level FlightAware Transoceanic
03:20AM 49.6422 161.3763 235° Southwest 515 593 34,000  Level FlightAware Transoceanic
03:21AM 49.5629 161.2045 234° Southwest 515 593 34,000  Level FlightAware Transoceanic
03:21AM 49.4833 161.0333 234° Southwest 526 605 34,000  Level Anchorage Center
03:22AM 49.4833 161.0333 234° Southwest 515 593 34,000  Level FlightAware Transoceanic
03:23AM 49.3874 160.8284 234° Southwest 515 593 34,000  Level FlightAware Transoceanic
03:24AM 49.2911 160.6243 234° Southwest 515 593 34,000  Level FlightAware Transoceanic
03:25AM 49.1944 160.4209 234° Southwest 515 593 34,000  Level FlightAware Transoceanic
03:26AM 49.0974 160.2184 234° Southwest 515 593 34,000  Level FlightAware Transoceanic
03:27AM 49.0161 160.0638 231° Southwest  Level FlightAware Approximate
03:28AM 48.9110 159.8353 233° Southwest 526 605 34,000  Level FlightAware Transoceanic
03:29AM 48.8218 159.6545 233° Southwest 526 605 34,000  Level FlightAware Transoceanic
03:30AM 48.7322 159.4744 233° Southwest 526 605 34,000  Level FlightAware Transoceanic
03:31AM 48.6424 159.2950 233° Southwest 526 605 34,000  Level FlightAware Transoceanic
03:32AM 48.5523 159.1161 233° Southwest 526 605 34,000  Level FlightAware Transoceanic
03:33AM 48.4620 158.9380 232° Southwest 526 605 34,000  Level FlightAware Transoceanic
03:34AM 48.3713 158.7604 232° Southwest 526 605 34,000  Level FlightAware Transoceanic
03:35AM 48.2804 158.5835 232° Southwest 526 605 34,000  Level FlightAware Transoceanic
03:36AM 48.1892 158.4072 232° Southwest 526 605 34,000  Level FlightAware Transoceanic
03:37AM 48.0978 158.2315 232° Southwest 526 605 34,000  Level FlightAware Transoceanic
03:38AM 48.0060 158.0565 232° Southwest 526 605 34,000  Level FlightAware Transoceanic
03:39AM 47.9141 157.8821 232° Southwest 526 605 34,000  Level FlightAware Transoceanic
03:40AM 47.8218 157.7083 232° Southwest 526 605 34,000  Level FlightAware Transoceanic
03:41AM 47.7293 157.5351 231° Southwest 526 605 34,000  Level FlightAware Transoceanic
03:42AM 47.6365 157.3625 231° Southwest 526 605 34,000  Level FlightAware Transoceanic
03:43AM 47.5435 157.1906 231° Southwest 526 605 34,000  Level FlightAware Transoceanic
03:44AM 47.4502 157.0193 231° Southwest 526 605 34,000  Level FlightAware Transoceanic
03:45AM 47.3567 156.8485 231° Southwest 526 605 34,000  Level FlightAware Transoceanic
03:46AM 47.2629 156.6784 231° Southwest 526 605 34,000  Level FlightAware Transoceanic
03:47AM 47.1688 156.5089 231° Southwest 526 605 34,000  Level FlightAware Transoceanic
03:48AM 47.0745 156.3399 231° Southwest 526 605 34,000  Level FlightAware Transoceanic
03:49AM 46.9800 156.1716 230° Southwest 526 605 34,000  Level FlightAware Transoceanic
03:50AM 46.8852 156.0039 230° Southwest 526 605 34,000  Level FlightAware Transoceanic
03:51AM 46.7902 155.8367 230° Southwest 526 605 34,000  Level FlightAware Transoceanic
03:52AM 46.6949 155.6702 230° Southwest 526 605 34,000  Level FlightAware Transoceanic
03:53AM 46.5994 155.5042 230° Southwest 526 605 34,000  Level FlightAware Transoceanic
03:54AM 46.5037 155.3389 230° Southwest 526 605 34,000  Level FlightAware Transoceanic
03:55AM 46.4077 155.1741 230° Southwest 526 605 34,000  Level FlightAware Transoceanic
03:56AM 46.3114 155.0098 230° Southwest 526 605 34,000  Level FlightAware Transoceanic
03:57AM 46.2150 154.8462 229° Southwest 526 605 34,000  Level FlightAware Transoceanic
03:58AM 46.1183 154.6831 229° Southwest 526 605 34,000  Level FlightAware Transoceanic
03:59AM 46.0214 154.5206 229° Southwest 526 605 34,000  Level FlightAware Transoceanic
04:00AM 45.9242 154.3587 229° Southwest 526 605 34,000  Level FlightAware Transoceanic
04:01AM 45.8268 154.1974 229° Southwest 526 605 34,000  Level FlightAware Transoceanic
04:02AM 45.7292 154.0366 229° Southwest 526 605 34,000  Level FlightAware Transoceanic
04:03AM 45.6314 153.8763 229° Southwest 526 605 34,000  Level FlightAware Transoceanic
04:04AM 45.5385 153.7469 224° Southwest  Level FlightAware Approximate
04:05AM 45.4454 153.6179 224° Southwest  Level FlightAware Approximate
04:06AM 45.4631 153.6301 229° Southwest  Level FlightAware Approximate
04:07AM 45.3771 153.4917 229° Southwest  Level FlightAware Approximate
04:08AM 45.2910 153.3536 228° Southwest  Level FlightAware Approximate
04:09AM 45.2046 153.2160 228° Southwest  Level FlightAware Approximate
04:10AM 45.1181 153.0788 228° Southwest  Level FlightAware Approximate
04:11AM 45.0315 152.9421 228° Southwest  Level FlightAware Approximate
04:12AM 44.9447 152.8057 228° Southwest  Level FlightAware Approximate
04:13AM 44.8577 152.6698 228° Southwest  Level FlightAware Approximate
04:14AM 44.7705 152.5342 228° Southwest  Level FlightAware Approximate
04:15AM 44.6832 152.3991 228° Southwest  Level FlightAware Approximate
04:16AM 44.5958 152.2644 228° Southwest  Level FlightAware Approximate
04:17AM 44.5082 152.1301 228° Southwest  Level FlightAware Approximate
04:18AM 44.4203 151.9962 227° Southwest  Level FlightAware Approximate
04:19AM 44.3323 151.8629 227° Southwest  Level FlightAware Approximate
04:20AM 44.2440 151.7299 227° Southwest  Level FlightAware Approximate
04:21AM 44.1557 151.5974 227° Southwest  Level FlightAware Approximate
04:22AM 44.0672 151.4653 227° Southwest  Level FlightAware Approximate
04:23AM 43.9785 151.3335 227° Southwest  Level FlightAware Approximate
04:24AM 43.8894 151.2025 227° Southwest  Level FlightAware Approximate
04:25AM 43.8000 151.0721 226° Southwest  Level FlightAware Approximate
04:26AM 43.7104 150.9421 226° Southwest  Level FlightAware Approximate
04:27AM 43.6207 150.8125 226° Southwest  Level FlightAware Approximate
04:28AM 43.5308 150.6833 226° Southwest  Level FlightAware Approximate
04:29AM 43.4408 150.5545 226° Southwest  Level FlightAware Approximate
04:30AM 43.3506 150.4261 226° Southwest  Level FlightAware Approximate
04:31AM 43.2603 150.2981 226° Southwest  Level FlightAware Approximate
04:32AM 43.1698 150.1704 226° Southwest  Level FlightAware Approximate
04:33AM 43.0793 150.0431 226° Southwest  Level FlightAware Approximate
04:34AM 42.9885 149.9162 226° Southwest  Level FlightAware Approximate
04:35AM 42.8976 149.7897 226° Southwest  Level FlightAware Approximate
04:36AM 42.8066 149.6635 226° Southwest  Level FlightAware Approximate
04:37AM 42.7155 149.5377 225° Southwest  Level FlightAware Approximate
04:38AM 42.6242 149.4123 225° Southwest  Level FlightAware Approximate
04:39AM 42.5327 149.2873 225° Southwest  Level FlightAware Approximate
04:40AM 42.4412 149.1626 225° Southwest  Level FlightAware Approximate
04:41AM 42.3495 149.0383 225° Southwest  Level FlightAware Approximate
04:42AM 42.2577 148.9143 225° Southwest  Level FlightAware Approximate
04:43AM 42.1657 148.7907 225° Southwest  Level FlightAware Approximate
04:44AM 42.0736 148.6675 225° Southwest  Level FlightAware Approximate
04:45AM 41.9814 148.5446 225° Southwest  Level FlightAware Approximate
04:46AM 41.8890 148.4220 225° Southwest  Level FlightAware Approximate
04:47AM 41.7965 148.2999 225° Southwest  Level FlightAware Approximate
04:48AM 41.7037 148.1783 224° Southwest  Level FlightAware Approximate
04:49AM 41.6103 148.0578 224° Southwest  Level FlightAware Approximate
04:50AM 41.5168 147.9376 224° Southwest  Level FlightAware Approximate
04:51AM 41.4231 147.8177 224° Southwest  Level FlightAware Approximate
04:52AM 41.3293 147.6982 224° Southwest  Level FlightAware Approximate
04:53AM 41.2354 147.5791 224° Southwest  Level FlightAware Approximate
04:54AM 41.1414 147.4602 224° Southwest  Level FlightAware Approximate
04:55AM 41.0472 147.3418 224° Southwest  Level FlightAware Approximate
04:56AM 40.9529 147.2236 223° Southwest  Level FlightAware Approximate
04:57AM 40.8585 147.1058 223° Southwest  Level FlightAware Approximate
04:58AM 40.7640 146.9883 223° Southwest  Level FlightAware Approximate
04:59AM 40.6694 146.8712 223° Southwest  Level FlightAware Approximate
05:00AM 40.5746 146.7544 223° Southwest  Level FlightAware Approximate
05:01AM 40.4798 146.6379 223° Southwest  Level FlightAware Approximate
05:02AM 40.3848 146.5218 223° Southwest  Level FlightAware Approximate
05:03AM 40.2897 146.4060 223° Southwest  Level FlightAware Approximate
05:04AM 40.1944 146.2905 223° Southwest  Level FlightAware Approximate
05:05AM 40.0991 146.1753 223° Southwest  Level FlightAware Approximate
05:06AM 40.0037 146.0605 223° Southwest  Level FlightAware Approximate
05:07AM 39.9081 145.9459 223° Southwest  Level FlightAware Approximate
05:08AM 39.8124 145.8317 223° Southwest  Level FlightAware Approximate
05:09AM 39.7166 145.7178 222° Southwest  Level FlightAware Approximate
05:10AM 39.6208 145.6043 222° Southwest  Level FlightAware Approximate
05:11AM 39.5248 145.4910 222° Southwest  Level FlightAware Approximate
05:12AM 39.4286 145.3781 222° Southwest  Level FlightAware Approximate
05:13AM 39.3324 145.2654 222° Southwest  Level FlightAware Approximate
05:14AM 39.2361 145.1531 222° Southwest  Level FlightAware Approximate
05:15AM 39.1397 145.0411 222° Southwest  Level FlightAware Approximate
05:16AM 39.0431 144.9294 222° Southwest  Level FlightAware Approximate
05:17AM 38.9465 144.8180 222° Southwest  Level FlightAware Approximate
05:18AM 38.8497 144.7069 222° Southwest  Level FlightAware Approximate
05:19AM 38.7527 144.5962 222° Southwest  Level FlightAware Approximate
05:20AM 38.6555 144.4860 222° Southwest  Level FlightAware Approximate
05:21AM 38.5583 144.3761 221° Southwest  Level FlightAware Approximate
05:22AM 38.4609 144.2665 221° Southwest  Level FlightAware Approximate
05:23AM 38.3634 144.1572 221° Southwest  Level FlightAware Approximate
05:24AM 38.2658 144.0482 221° Southwest  Level FlightAware Approximate
05:25AM 38.1682 143.9395 221° Southwest  Level FlightAware Approximate
05:26AM 38.0704 143.8311 221° Southwest  Level FlightAware Approximate
05:27AM 37.9725 143.7229 221° Southwest  Level FlightAware Approximate
05:28AM 37.8745 143.6151 221° Southwest  Level FlightAware Approximate
05:29AM 37.7888 143.4965 249° West  Level FlightAware Approximate
05:30AM 37.7420 143.3434 249° West  Level FlightAware Approximate
05:31AM 37.6949 143.1905 249° West  Level FlightAware Approximate
05:32AM 37.6477 143.0378 249° West  Level FlightAware Approximate
05:33AM 37.6003 142.8853 249° West  Level FlightAware Approximate
05:34AM 37.5527 142.7330 249° West  Level FlightAware Approximate
05:35AM 37.5049 142.5809 248° West  Level FlightAware Approximate
05:36AM 37.4569 142.4290 248° West  Level FlightAware Approximate
05:37AM 37.4087 142.2773 248° West  Level FlightAware Approximate
05:38AM 37.3581 142.1269 247° West  Level FlightAware Approximate
05:39AM 37.3069 141.9769 247° West  Level FlightAware Approximate
05:40AM 37.2555 141.8272 247° West  Level FlightAware Approximate
05:41AM 37.2039 141.6776 247° West  Level FlightAware Approximate
05:42AM 37.1522 141.5283 247° West  Level FlightAware Approximate
05:43AM 37.1002 141.3792 246° West  Level FlightAware Approximate
05:44AM 37.0483 141.2301 247° West  Level FlightAware Approximate
05:45AM 36.9966 141.0811 247° West  Level FlightAware Approximate
05:46AM 36.9447 140.9322 246° West  Level FlightAware Approximate
05:47AM 36.8926 140.7835 246° West  Level FlightAware Approximate
05:48AM 36.8403 140.6351 246° West  Level FlightAware Approximate
05:49AM 36.7879 140.4868 246° West  Level FlightAware Approximate
05:50AM 36.7353 140.3388 246° West  Level FlightAware Approximate
05:51AM 36.6658 140.2021 237° Southwest  Level FlightAware Approximate
05:52AM 36.5956 140.0662 237° Southwest  Level FlightAware Approximate
05:53AM 36.5252 139.9304 237° Southwest  Level FlightAware Approximate
05:54AM 36.4586 139.7921 242° Southwest  Level FlightAware Approximate
05:55AM 36.3976 139.6498 242° Southwest  Level FlightAware Approximate
05:56AM 36.3364 139.5076 242° Southwest  Level FlightAware Approximate
05:57AM 36.2750 139.3658 242° Southwest  Level FlightAware Approximate
05:58AM 36.2135 139.2241 242° Southwest  Level FlightAware Approximate
05:59AM 36.1524 139.0823 243° Southwest  Level FlightAware Approximate
06:00AM 36.0927 138.9396 243° Southwest  Level FlightAware Approximate
06:01AM 36.0330 138.7972 243° Southwest  Level FlightAware Approximate
06:02AM 35.9730 138.6549 243° Southwest  Level FlightAware Approximate
06:03AM 35.9129 138.5129 242° Southwest  Level FlightAware Approximate
06:04AM 35.8526 138.3710 242° Southwest  Level FlightAware Approximate
06:05AM 35.7921 138.2294 242° Southwest  Level FlightAware Approximate
06:06AM 35.7315 138.0880 242° Southwest  Level FlightAware Approximate
06:07AM 35.6707 137.9469 242° Southwest  Level FlightAware Approximate
06:08AM 35.6098 137.8059 242° Southwest  Level FlightAware Approximate
06:09AM 35.5520 137.6630 244° Southwest  Level FlightAware Approximate
06:10AM 35.4948 137.5200 244° Southwest  Level FlightAware Approximate
06:11AM 35.4085 137.4111 209° Southwest  Level FlightAware Approximate
06:12AM 35.2946 137.3349 209° Southwest  Level FlightAware Approximate
06:13AM 35.1806 137.2590 209° Southwest  Level FlightAware Approximate
06:14AM 35.0666 137.1833 208° Southwest  Level FlightAware Approximate
06:15AM 34.9516 137.1098 208° Southwest  Level FlightAware Approximate
06:16AM 34.8366 137.0366 208° Southwest  Level FlightAware Approximate
06:17AM 34.7215 136.9636 208° Southwest  Level FlightAware Approximate
06:18AM 34.6153 136.8735 217° Southwest  Level FlightAware Approximate
06:19AM 34.5111 136.7796 217° Southwest  Level FlightAware Approximate
06:20AM 34.4068 136.6859 217° Southwest  Level FlightAware Approximate
06:21AM 34.3051 136.5884 220° Southwest  Level FlightAware Approximate
06:22AM 34.1995 136.4995 220° Southwest  Level FlightAware Approximate
06:23AM 34.0996 136.3996 220° Southwest  Level FlightAware Approximate
06:24AM 33.9973 136.3032 218° Southwest  Level FlightAware Approximate
06:25AM 33.8945 136.2078 218° Southwest  Level FlightAware Approximate
06:26AM 33.7916 136.1126 218° Southwest  Level FlightAware Approximate
06:27AM 33.6886 136.0176 218° Southwest  Level FlightAware Approximate
06:28AM 33.5856 135.9228 217° Southwest  Level FlightAware Approximate
06:29AM 33.4825 135.8283 217° Southwest  Level FlightAware Approximate
06:30AM 33.4161 135.7046 255° West  Level FlightAware Approximate
06:31AM 33.3830 135.5544 255° West  Level FlightAware Approximate
06:32AM 33.3497 135.4042 255° West  Level FlightAware Approximate
06:33AM 33.3163 135.2541 255° West  Level FlightAware Approximate
06:34AM 33.2826 135.1042 255° West  Level FlightAware Approximate
06:35AM 33.2435 134.9564 254° West  Level FlightAware Approximate
06:36AM 33.2071 134.8075 254° West  Level FlightAware Approximate
06:37AM 33.1706 134.6587 254° West  Level FlightAware Approximate
06:38AM 33.1339 134.5101 254° West  Level FlightAware Approximate
06:39AM 33.0970 134.3615 254° West  Level FlightAware Approximate
06:40AM 33.0600 134.2131 253° West  Level FlightAware Approximate
06:41AM 33.0227 134.0648 253° West  Level FlightAware Approximate
06:42AM 32.9853 133.9167 253° West  Level FlightAware Approximate
06:43AM 32.9478 133.7686 253° West  Level FlightAware Approximate
06:44AM 32.9100 133.6207 253° West  Level FlightAware Approximate
06:45AM 32.8725 133.4728 254° West  Level FlightAware Approximate
06:46AM 32.8357 133.3247 254° West  Level FlightAware Approximate
06:47AM 32.7986 133.1767 253° West  Level FlightAware Approximate
06:48AM 32.7615 133.0288 253° West  Level FlightAware Approximate
06:49AM 32.7092 132.8882 243° Southwest  Level FlightAware Approximate
06:50AM 32.6502 132.7509 243° Southwest  Level FlightAware Approximate
06:51AM 32.5911 132.6138 243° Southwest  Level FlightAware Approximate
06:52AM 32.5318 132.4768 243° Southwest  Level FlightAware Approximate
06:53AM 32.4723 132.3401 243° Southwest  Level FlightAware Approximate
06:54AM 32.4127 132.2035 243° Southwest  Level FlightAware Approximate
06:55AM 32.3530 132.0671 243° Southwest  Level FlightAware Approximate
06:56AM 32.2930 131.9309 243° Southwest  Level FlightAware Approximate
06:57AM 32.2330 131.7948 242° Southwest  Level FlightAware Approximate
06:58AM 32.1728 131.6590 242° Southwest  Level FlightAware Approximate
06:59AM 32.1125 131.5233 242° Southwest  Level FlightAware Approximate
07:00AM 32.0520 131.3878 242° Southwest  Level FlightAware Approximate
07:01AM 31.9917 131.2523 242° Southwest  Level FlightAware Approximate
07:02AM 31.9313 131.1169 242° Southwest  Level FlightAware Approximate
07:03AM 31.8707 130.9817 242° Southwest  Level FlightAware Approximate
07:04AM 31.8100 130.8467 242° Southwest  Level FlightAware Approximate
07:05AM 31.7491 130.7119 242° Southwest  Level FlightAware Approximate
07:06AM 31.6882 130.5773 242° Southwest  Level FlightAware Approximate
07:07AM 31.6109 130.4550 233° Southwest  Level FlightAware Approximate
07:08AM 31.5322 130.3339 233° Southwest  Level FlightAware Approximate
07:09AM 31.4534 130.2130 233° Southwest  Level FlightAware Approximate
07:10AM 31.3744 130.0923 233° Southwest  Level FlightAware Approximate
07:11AM 31.2953 129.9719 232° Southwest  Level FlightAware Approximate
07:12AM 31.2162 129.8516 232° Southwest  Level FlightAware Approximate
07:13AM 31.1369 129.7316 232° Southwest  Level FlightAware Approximate
07:14AM 31.0575 129.6117 232° Southwest  Level FlightAware Approximate
07:15AM 30.9780 129.4920 232° Southwest  Level FlightAware Approximate
07:16AM 30.8986 129.3724 233° Southwest  Level FlightAware Approximate
07:17AM 30.8197 129.2523 233° Southwest  Level FlightAware Approximate
07:18AM 30.7408 129.1325 233° Southwest  Level FlightAware Approximate
07:19AM 30.6617 129.0128 232° Southwest  Level FlightAware Approximate
07:20AM 30.5825 128.8934 232° Southwest  Level FlightAware Approximate
07:21AM 30.5032 128.7741 232° Southwest  Level FlightAware Approximate
07:22AM 30.4238 128.6550 232° Southwest  Level FlightAware Approximate
07:23AM 30.3443 128.5362 232° Southwest  Level FlightAware Approximate
07:24AM 30.2647 128.4175 232° Southwest  Level FlightAware Approximate
07:25AM 30.1850 128.2990 232° Southwest  Level FlightAware Approximate
07:26AM 30.1051 128.1807 232° Southwest  Level FlightAware Approximate
07:27AM 30.0252 128.0626 232° Southwest  Level FlightAware Approximate
07:28AM 29.9386 127.9513 229° Southwest  Level FlightAware Approximate
07:29AM 29.8536 127.8382 229° Southwest  Level FlightAware Approximate
07:30AM 29.7730 127.7210 232° Southwest  Level FlightAware Approximate
07:31AM 29.6925 127.6038 232° Southwest  Level FlightAware Approximate
07:32AM 29.6119 127.4868 232° Southwest  Level FlightAware Approximate
07:33AM 29.5311 127.3700 232° Southwest  Level FlightAware Approximate
07:34AM 29.4503 127.2534 231° Southwest  Level FlightAware Approximate
07:35AM 29.3694 127.1370 231° Southwest  Level FlightAware Approximate
07:36AM 29.2883 127.0207 231° Southwest  Level FlightAware Approximate
07:37AM 29.2072 126.9047 231° Southwest  Level FlightAware Approximate
07:38AM 29.1259 126.7888 231° Southwest  Level FlightAware Approximate
07:39AM 29.0446 126.6731 231° Southwest  Level FlightAware Approximate
07:40AM 28.9632 126.5576 231° Southwest  Level FlightAware Approximate
07:41AM 28.8817 126.4423 231° Southwest  Level FlightAware Approximate
07:42AM 28.8000 126.3271 231° Southwest  Level FlightAware Approximate
07:43AM 28.7183 126.2121 231° Southwest  Level FlightAware Approximate
07:44AM 28.6365 126.0973 231° Southwest  Level FlightAware Approximate
07:45AM 28.5546 125.9827 231° Southwest  Level FlightAware Approximate
07:46AM 28.4725 125.8683 231° Southwest  Level FlightAware Approximate
07:47AM 28.3902 125.7542 231° Southwest  Level FlightAware Approximate
07:48AM 28.3078 125.6404 231° Southwest  Level FlightAware Approximate
07:49AM 28.2253 125.5267 231° Southwest  Level FlightAware Approximate
07:50AM 28.1427 125.4131 230° Southwest  Level FlightAware Approximate
07:51AM 28.0599 125.2998 230° Southwest  Level FlightAware Approximate
07:52AM 27.9772 125.1866 230° Southwest  Level FlightAware Approximate
07:53AM 27.8943 125.0736 230° Southwest  Level FlightAware Approximate
07:54AM 27.8113 124.9607 230° Southwest  Level FlightAware Approximate
07:55AM 27.7282 124.8481 230° Southwest  Level FlightAware Approximate
07:56AM 27.6451 124.7356 230° Southwest  Level FlightAware Approximate
07:57AM 27.5618 124.6233 230° Southwest  Level FlightAware Approximate
07:58AM 27.4785 124.5111 230° Southwest  Level FlightAware Approximate
07:59AM 27.3950 124.3991 230° Southwest  Level FlightAware Approximate
08:00AM 27.3115 124.2873 230° Southwest  Level FlightAware Approximate
08:01AM 27.2279 124.1757 230° Southwest  Level FlightAware Approximate
08:02AM 27.1442 124.0642 230° Southwest  Level FlightAware Approximate
08:03AM 27.0604 123.9529 230° Southwest  Level FlightAware Approximate
08:04AM 26.9763 123.8420 230° Southwest  Level FlightAware Approximate
08:05AM 26.8922 123.7311 230° Southwest  Level FlightAware Approximate
08:06AM 26.8080 123.6205 230° Southwest  Level FlightAware Approximate
08:07AM 26.7237 123.5100 230° Southwest  Level FlightAware Approximate
08:08AM 26.6393 123.3997 229° Southwest  Level FlightAware Approximate
08:09AM 26.5548 123.2895 229° Southwest  Level FlightAware Approximate
08:10AM 26.4703 123.1795 229° Southwest  Level FlightAware Approximate
08:11AM 26.3857 123.0697 229° Southwest  Level FlightAware Approximate
08:12AM 26.3002 122.9607 229° Southwest  Level FlightAware Approximate
08:13AM 26.2146 122.8519 229° Southwest  Level FlightAware Approximate
08:14AM 26.1331 122.7396 229° Southwest  Level FlightAware Approximate
08:15AM 26.0487 122.6298 229° Southwest  Level FlightAware Approximate
08:16AM 25.9635 122.5209 228° Southwest  Level FlightAware Approximate
08:17AM 25.8773 122.4131 228° Southwest  Level FlightAware Approximate
08:18AM 25.7912 122.3053 229° Southwest  Level FlightAware Approximate
08:19AM 25.7064 122.1961 229° Southwest  Level FlightAware Approximate
08:20AM 25.6216 122.0872 229° Southwest  Level FlightAware Approximate
08:21AM 25.5375 121.9777 230° Southwest  Level FlightAware Approximate
08:22AM 25.4696 121.8557 241° Southwest  Level FlightAware Approximate
08:23AM 25.4007 121.7343 234° Southwest  Level FlightAware Approximate
08:24AM 25.3237 121.6188 234° Southwest  Level FlightAware Approximate
08:25AM 25.2489 121.5015 235° Southwest  Level FlightAware Approximate
08:26AM 25.1796 121.3839 230° Southwest  Level FlightAware Approximate
08:27AM 25.1046 121.2672 230° Southwest  Level FlightAware Approximate
08:28AM 25.0777 121.2328 230° Southwest  Level Estimated
08:29AM 25.0777 121.2328 230° Southwest  Level Estimated
08:30AM 25.0777 121.2328 230° Southwest  Level Estimated
08:31AM 25.0777 121.2328 230° Southwest  Level Estimated
08:32AM 25.0777 121.2328 230° Southwest  Level Estimated
08:33AM 25.0777 121.2328 230° Southwest  Level Estimated
08:34AM 25.0777 121.2328 230° Southwest  Level Estimated
08:35AM 25.0777 121.2328 230° Southwest  Level Estimated
08:36AM 25.0777 121.2328 230° Southwest  Level Estimated
08:37AM 25.0777 121.2328 230° Southwest  Level Estimated
08:38AM 25.0777 121.2328 230° Southwest  Level Estimated
08:39AM 25.0777 121.2328 230° Southwest  Level Estimated
08:40AM 25.0777 121.2328 230° Southwest  Level Estimated
08:41AM 25.0777 121.2328 230° Southwest  Level Estimated
08:42AM 25.0777 121.2328 230° Southwest  Level Estimated
08:43AM 25.0777 121.2328 230° Southwest  Level Estimated